Wednesday, November 21, 2018, 4:58 AM EST
Back to Local

KGTB, Fort Drum / Wheeler-sack U. S. Army Airfield

Location: Fort Drum, NY, United States Lat: 44.05
Local Time: 4:58 AM EST ( 9:58 GMT) Lon: -75.733
Time Zone: US/Eastern Elev: 679 ft

Show me the last for .
Show Decoded

2018-11-21 04:29 METAR KGTB 210929Z AUTO 15012KT 3SM -UP BR FEW003 M05/M05 A2984 RMK AO2 SLP115 =
2018-11-21 03:56 METAR KGTB 210856Z AUTO 16010KT 6SM -UP BR OVC039 M05/M05 A2987 RMK AO2
                 SNE12UPB12E27SNB27E42UPB42 SLP125 P0000 60000 T10501050 57030 =
2018-11-21 03:46 METAR KGTB 210846Z AUTO 15009KT 8SM -UP SCT008 M05/M05 A2988 RMK AO2
                 SNE12UPB12E27SNB27E42UPB42 SLP129 =
2018-11-21 03:16 METAR KGTB 210816Z AUTO 15006KT 10SM -UP OVC008 M05/M05 A2990 RMK AO2 SNE12UPB12
                 SLP136 =
2018-11-21 02:56 METAR KGTB 210756Z AUTO 15006KT 10SM -SN OVC007 M05/M05 A2991 RMK AO2 PRESFR
                 SLP139 P0000 T10541054 =
2018-11-21 02:36 METAR KGTB 210736Z AUTO 17005KT 8SM -SN BKN008 OVC042 M05/M05 A2993 RMK AO2 CIG
                 008V040 SLP146 =
2018-11-21 02:20 METAR KGTB 210720Z AUTO 20004KT 7SM -SN FEW011 SCT021 OVC042 M05/M05 A2993 RMK
                 AO2 SLP146 =
2018-11-21 02:10 METAR KGTB 210710Z AUTO 23003KT 4SM -SN BR FEW005 SCT010 BKN021 OVC042 M05/M05
                 A2994 RMK AO2 CIG 010V021 CIG 017 RWY21 SLP149 =
2018-11-21 01:56 METAR KGTB 210656Z AUTO 26003KT 5SM -SN BR BKN010 M05/M06 A2994 RMK AO2
                 UPB26E30SNB30 CIG 008V015 BKN V SCT SLP149 P0000 T10511062 =
2018-11-21 01:46 METAR KGTB 210646Z AUTO 29003KT 6SM -SN BR BKN008 M05/M07 A2995 RMK AO2
                 UPB26E30SNB30 SLP153 =
2018-11-21 01:26 METAR KGTB 210626Z AUTO 25004KT 10SM -UP SCT007 BKN021 BKN028 BKN036 M05/M08
                 A2995 RMK AO2 UPB26 CIG 007V030 SLP152 =
2018-11-21 01:22 METAR KGTB 210622Z AUTO 26004KT 10SM BKN007 BKN028 BKN036 M05/M08 A2995 RMK AO2
                 CIG 007V030 BKN007 V SCT SLP152 =
2018-11-21 01:12 METAR KGTB 210612Z AUTO 27005KT 10SM FEW008 FEW022 BKN030 OVC060 M05/M08 A2996
                 RMK AO2 SLP155 =
2018-11-21 00:56 METAR KGTB 210556Z 28005KT 10SM FEW022 SCT032 BKN041 OVC060 M05/M08 A2996 RMK
                 AO2A UPB11E13SNB13E32 SLP155 P0000 60000 4/004 T10511083 11050 21082 57005 =
2018-11-21 00:32 METAR KGTB 210532Z 28005KT 10SM FEW008 SCT021 OVC038 M05/M08 A2996 RMK AO2A
                 UPB11E13SNB13E32 SLP155 =
2018-11-21 00:11 METAR KGTB 210511Z AUTO 28007KT 10SM -UP FEW005 FEW008 SCT017 SCT026 OVC034
                 M05/M09 A2996 RMK AO2 UPB11 SLP155 =
2018-11-21 00:07 METAR KGTB 210507Z AUTO 28006KT 10SM FEW007 FEW017 SCT026 OVC034 M05/M09 A2996
                 RMK AO2 SLP155 =
2018-11-20 23:56 METAR KGTB 210456Z AUTO 28005KT 10SM FEW027 OVC034 M05/M09 A2996 RMK AO2 SLP155
                 T10511087 410021082 =
2018-11-20 22:56 METAR KGTB 210356Z AUTO 28007KT 10SM OVC034 M05/M09 A2997 RMK AO2 SLP159
                 T10541086 =
2018-11-20 21:56 METAR KGTB 210256Z AUTO 27007KT 10SM BKN110 M05/M06 A2998 RMK AO2 SLP162 60000
                 T10551056 55002 =
2018-11-20 20:56 METAR KGTB 210156Z AUTO 20004KT 10SM CLR M08/M08 A2998 RMK AO2 UPE0059 SLP163
                 P0000 T10781078 =
2018-11-20 20:39 METAR KGTB 210139Z AUTO 19004KT 10SM SCT025 M06/M06 A2998 RMK AO2 UPE0059 SLP163
                 =
2018-11-20 20:09 METAR KGTB 210109Z AUTO 15003KT 10SM FEW017 BKN029 OVC042 M05/M05 A2998 RMK AO2
                 UPE0059 CIG 029V036 BKN V SCT SLP163 =
2018-11-20 19:59 METAR KGTB 210059Z AUTO 12003KT 10SM FEW018 SCT025 BKN032 OVC044 M05/M05 A2998
                 RMK AO2 UPE59 SLP163 =
2018-11-20 19:56 METAR KGTB 210056Z AUTO 11003KT 10SM -UP FEW018 SCT025 BKN032 OVC042 M05/M05
                 A2998 RMK AO2 UPB39 SLP163 P0000 T10521052 =
2018-11-20 19:39 METAR KGTB 210039Z AUTO 08003KT 10SM -UP FEW017 SCT024 BKN031 OVC041 M05/M05
                 A2998 RMK AO2 UPB39 SLP163 =
2018-11-20 18:56 METAR KGTB 202356Z 01003KT 10SM SCT016 BKN039 M06/M06 A2998 RMK AO2A SLP163
                 60000 4/004 T10561056 11013 21056 51019 =
2018-11-20 18:36 METAR KGTB 202336Z 00000KT 10SM OVC015 M05/M05 A2998 RMK AO2A SLP163 =
2018-11-20 17:56 METAR KGTB 202256Z AUTO 31003KT 10SM OVC012 M04/M04 A2998 RMK AO2 SLP162
                 T10451045 =
2018-11-20 16:56 METAR KGTB 202156Z AUTO 31005KT 10SM OVC010 M04/M04 A2996 RMK AO2 SLP155
                 T10421042 =
2018-11-20 16:36 METAR KGTB 202136Z AUTO 30005KT 10SM OVC009 M04/M04 A2995 RMK AO2 CIG 007V009
                 CIG 008 RWY21 SLP152 =
2018-11-20 16:06 METAR KGTB 202106Z AUTO 31007KT 10SM OVC007 M04/M04 A2993 RMK AO2 SLP145 =
2018-11-20 15:56 METAR KGTB 202056Z AUTO 32006KT 10SM OVC006 M03/M03 A2993 RMK AO2 SNE54 SLP145
                 P0000 60000 T10341034 52016 =
2018-11-20 15:54 METAR KGTB 202054Z AUTO 32007KT 10SM OVC006 M03/M03 A2993 RMK AO2 SNE54 SLP145 =
2018-11-20 15:36 METAR KGTB 202036Z AUTO 31007KT 7SM -SN BR OVC006 M03/M03 A2992 RMK AO2 SLP142 =
2018-11-20 14:56 METAR KGTB 201956Z AUTO 32006KT 5SM -SN BR OVC005 M02/M02 A2990 RMK AO2 SLP134
                 P0000 T10241024 =
2018-11-20 14:06 METAR KGTB 201906Z AUTO 32007KT 3SM -SN BR OVC005 M02/M02 A2989 RMK AO2 VIS 2
                 1/2 RWY33 SLP131 =
2018-11-20 13:56 METAR KGTB 201856Z AUTO 32006KT 3SM -SN BR OVC004 M02/M02 A2989 RMK AO2 VIS 1
                 7/8 RWY21 SLP131 P0000 T10221022 =
2018-11-20 13:46 METAR KGTB 201846Z AUTO 32008KT 2 1/2SM -SN BR OVC004 M02/M02 A2989 RMK AO2 VIS
                 1 7/8V2 1/2 VIS 2 RWY33 OVC V BKN SLP131 =
2018-11-20 13:36 METAR KGTB 201836Z AUTO 33007KT 2SM -SN BR BKN004 OVC014 M02/M02 A2989 RMK AO2
                 VIS 1 1/2 RWY15 VIS 1 1/2 RWY33 SLP131 =
2018-11-20 13:26 METAR KGTB 201826Z AUTO 33009KT 1 1/2SM -SN BR BKN003 OVC014 M02/M02 A2989 RMK
                 AO2 VIS 1V1 1/2 SLP131 =
2018-11-20 13:16 METAR KGTB 201816Z AUTO 32008KT 1 1/8SM -SN BR OVC003 M02/M02 A2989 RMK AO2 VIS
                 1 1/8V2 1/4 SLP130 =
2018-11-20 13:06 METAR KGTB 201806Z AUTO 31006KT 2 1/4SM -SN BR OVC003 M01/M01 A2988 RMK AO2 VIS
                 1 3/4V2 1/4 SLP127 =
2018-11-20 12:56 METAR KGTB 201756Z 31006KT 1 3/4SM -SN BR BKN003 M01/M01 A2988 RMK AO2A SLP127
                 P0002 60002 4/003 T10121012 11011 21029 58006 =
2018-11-20 12:36 METAR KGTB 201736Z AUTO 00000KT 1 3/4SM -SN BR BKN003 M01/M01 A2988 RMK AO2 BKN
                 V OVC SLP127 =
2018-11-20 12:26 METAR KGTB 201726Z AUTO 00000KT 2SM -SN BR OVC003 M01/M01 A2988 RMK AO2 SLP127 =
2018-11-20 12:06 METAR KGTB 201706Z AUTO 00000KT 1 7/8SM -SN BR OVC003 M01/M01 A2989 RMK AO2 VIS
                 1 7/8V3 SLP130 =
2018-11-20 11:56 METAR KGTB 201656Z AUTO 00000KT 2 3/4SM -SN BR OVC003 M01/M01 A2989 RMK AO2 VIS
                 2V2 3/4 VIS 1 1/2 RWY15 VIS 1 1/2 RWY21 VIS 2 1/4 RWY33 SLP130 P0000 T10141014 =
2018-11-20 11:46 METAR KGTB 201646Z AUTO 00000KT 2SM -SN BR OVC003 M01/M01 A2989 RMK AO2 VIS 2V2
                 1/2 VIS 1 1/2 RWY33 SLP130 =
2018-11-20 11:36 METAR KGTB 201636Z AUTO 01003KT 2 1/2SM -SN BR OVC004 M01/M01 A2989 RMK AO2 VIS
                 2 RWY21 SLP130 =
2018-11-20 11:26 METAR KGTB 201626Z AUTO 34004KT 2 3/4SM -SN BR OVC003 M01/M01 A2990 RMK AO2 VIS
                 2 3/4V4 VIS 2 1/4 RWY21 SLP134 =
2018-11-20 11:16 METAR KGTB 201616Z AUTO 33004KT 4SM -SN BR OVC003 M01/M01 A2990 RMK AO2 VIS 2
                 RWY21 SLP134 =
2018-11-20 10:56 METAR KGTB 201556Z AUTO 33004KT 1 7/8SM -SN BR OVC003 M01/M01 A2991 RMK AO2 VIS
                 1 7/8V2 1/2 SLP137 P0000 T10131013 =
2018-11-20 10:48 METAR KGTB 201548Z AUTO 36003KT 2 1/2SM -SN BR OVC004 M01/M01 A2991 RMK AO2 VIS
                 2 1/4V2 3/4 VIS 1 3/4 RWY15 VIS 1 1/2 RWY21 SLP137 =
2018-11-20 10:38 METAR KGTB 201538Z AUTO 36004KT 2 3/4SM -SN BR OVC005 M01/M01 A2991 RMK AO2 VIS
                 2 3/4V5 VIS 2 RWY15 VIS 1 5/8 RWY21 VIS 2 1/4 RWY33 SLP137 =
2018-11-20 10:28 METAR KGTB 201528Z AUTO 34004KT 5SM -SN BR BKN006 M01/M01 A2991 RMK AO2 VIS 2
                 1/2 RWY21 BKN V SCT SLP137 =
2018-11-20 10:08 METAR KGTB 201508Z AUTO 32005KT 6SM -SN FEW006 SCT017 M01/M01 A2990 RMK AO2
                 SLP133 =
2018-11-20 10:06 METAR KGTB 201506Z AUTO 33005KT 7SM -SN SCT017 OVC048 M01/M01 A2990 RMK AO2
                 SLP133 =
2018-11-20 09:56 METAR KGTB 201456Z AUTO 03004KT 8SM -SN BKN018 BKN033 OVC046 M01/M01 A2990 RMK
                 AO2 UPB43E52SNB52 SLP133 P0000 60000 T10111011 50002 =
2018-11-20 09:43 METAR KGTB 201443Z AUTO 03004KT 10SM -UP BKN018 BKN035 OVC070 M01/M01 A2989 RMK
                 AO2 UPB43 CIG 018V035 SLP130 =
2018-11-20 08:56 METAR KGTB 201356Z AUTO 03004KT 8SM OVC050 M02/M02 A2989 RMK AO2 SLP130
                 T10211021 $ =
2018-11-20 07:56 METAR KGTB 201256Z AUTO 02005KT 10SM BKN050 OVC075 M03/M03 A2990 RMK AO2 SLP134
                 T10261026 $ =
2018-11-20 06:56 METAR KGTB 201156Z 03003KT 10SM FEW095 M03/M03 A2989 RMK AO2A SLP130 4/002
                 T10271027 11008 21028 55006 $ =
2018-11-20 05:56 METAR KGTB 201056Z AUTO 00000KT 10SM CLR M02/M02 A2991 RMK AO2 SLP137 T10251025
                 $ =

Support USWX by starting your Amazon purchase here.